Other Surface Observations
Issued by NWS Missoula, MT

Home | Current Version | Previous Version | Text Only | Print | Product List | Glossary On
Versions: 1 2 3 4 5 6 7 8 9 10 11 12 13 14 15 16 17 18 19 20 21 22 23 24 25 26 27 28 29 30 31 32 33 34 35 36 37 38 39 40 41 42 43 44 45 46 47 48 49 50
000
SXUS55 KMSO 240323
OSOMSO
MONTANA AWOS SUMMARY
NATIONAL WEATHER SERVICE MISSOULA MT
923 PM MDT SAT MAY 23 2015

Montana AWOS Reports

SCOBEY      |K9S2 240255Z AUTO 08005KT 15SM 16/02 A3008 RMK AO1 T01560017
EKALAKA     |K97M 240255Z AUTO 07007KT 40SM 11/08 A3004 RMK AO1 T01060078
TWIN BRIDGES|K7S1 240315Z AUTO 16018G22KT 070V250 40SM 12/06 A3003 RMK AO1 T01170061
ROUNDUP     |KRPX 240315Z AUTO 06005KT 40SM 13/06 A2999 RMK AO1 T01330061
LAUREL      |K6S8 240315Z AUTO 04004KT 40SM 12/07 A3004 RMK AO1 T01170067
MALTA       |KM75 240315Z AUTO 00000KT 40SM 16/06 A3005 RMK AO1 T01560056




USA.gov is the U.S. government's official web portal to all federal, state and local government web resources and services.